createdAt,value
2022-11-27T00:01:13.201Z,-0.37
2022-11-27T00:03:15.354Z,-0.35
2022-11-27T00:05:17.629Z,-0.33
2022-11-27T00:07:19.853Z,-0.32
2022-11-27T00:09:21.857Z,-0.31
2022-11-27T00:11:25.900Z,-0.32
2022-11-27T00:13:27.793Z,-0.31
2022-11-27T00:15:29.690Z,-0.32
2022-11-27T00:17:31.616Z,-0.33
2022-11-27T00:19:33.702Z,-0.31
2022-11-27T00:21:36.586Z,-0.30
2022-11-27T00:23:38.644Z,-0.34
2022-11-27T00:25:40.609Z,-0.31
2022-11-27T00:27:42.509Z,-0.36
2022-11-27T00:29:44.458Z,-0.36
2022-11-27T00:31:46.384Z,-0.36
2022-11-27T00:33:48.650Z,-0.35
2022-11-27T00:35:51.544Z,-0.38
2022-11-27T00:37:53.373Z,-0.41
2022-11-27T00:39:55.314Z,-0.40
2022-11-27T00:41:57.186Z,-0.45
2022-11-27T00:43:59.507Z,-0.41
2022-11-27T00:46:01.502Z,-0.47
2022-11-27T00:48:03.502Z,-0.46
2022-11-27T00:50:06.024Z,-0.44
2022-11-27T00:52:07.999Z,-0.45
2022-11-27T00:54:10.049Z,-0.47
2022-11-27T00:56:18.084Z,-0.47
2022-11-27T00:58:20.138Z,-0.49
2022-11-27T01:00:23.366Z,-0.52
2022-11-27T01:02:25.483Z,-0.50
2022-11-27T01:04:28.357Z,-0.52
2022-11-27T01:06:30.647Z,-0.55
2022-11-27T01:08:33.271Z,-0.55
2022-11-27T01:10:35.137Z,-0.56
2022-11-27T01:12:37.008Z,-0.56
2022-11-27T01:14:39.126Z,-0.60
2022-11-27T01:16:43.357Z,-0.57
2022-11-27T01:18:48.139Z,-0.56
2022-11-27T01:20:53.085Z,-0.56
2022-11-27T01:22:54.887Z,-0.56
2022-11-27T01:24:56.769Z,-0.55
2022-11-27T01:26:58.580Z,-0.55
2022-11-27T01:29:00.710Z,-0.58
2022-11-27T01:31:12.874Z,-0.58
2022-11-27T01:33:15.086Z,-0.58
2022-11-27T01:35:16.977Z,-0.60
2022-11-27T01:37:18.781Z,-0.59
2022-11-27T01:39:21.837Z,-0.57
2022-11-27T01:41:35.625Z,-0.54
2022-11-27T01:43:37.374Z,-0.52
2022-11-27T01:45:39.247Z,-0.54
2022-11-27T01:48:03.377Z,-0.50
2022-11-27T01:50:17.125Z,-0.58
2022-11-27T01:52:27.431Z,-0.53
2022-11-27T01:54:34.763Z,-0.53
2022-11-27T01:56:37.283Z,-0.51
2022-11-27T01:58:39.894Z,-0.55
2022-11-27T02:00:42.088Z,-0.50
2022-11-27T02:02:45.125Z,-0.50
2022-11-27T02:04:46.962Z,-0.49
2022-11-27T02:06:48.791Z,-0.48
2022-11-27T02:08:52.999Z,-0.47
2022-11-27T02:11:19.670Z,-0.48
2022-11-27T02:13:27.233Z,-0.49
2022-11-27T02:15:46.959Z,-0.43
2022-11-27T02:17:52.814Z,-0.48
2022-11-27T02:20:28.898Z,-0.49
2022-11-27T02:22:50.299Z,-0.52
2022-11-27T02:25:26.794Z,-0.52
2022-11-27T02:27:43.877Z,-0.51
2022-11-27T02:29:50.177Z,-0.50
2022-11-27T02:31:58.373Z,-0.47
2022-11-27T02:34:23.529Z,-0.48
2022-11-27T02:36:32.095Z,-0.47
2022-11-27T02:38:44.852Z,-0.47
2022-11-27T02:41:14.045Z,-0.44
2022-11-27T02:43:21.878Z,-0.46
2022-11-27T02:45:34.907Z,-0.46
2022-11-27T02:47:40.222Z,-0.47
2022-11-27T02:49:44.227Z,-0.45
2022-11-27T02:51:59.240Z,-0.44
2022-11-27T02:54:05.774Z,-0.45
2022-11-27T02:56:11.713Z,-0.46
2022-11-27T02:58:18.060Z,-0.45
2022-11-27T03:00:20.199Z,-0.45
2022-11-27T03:02:28.628Z,-0.45
2022-11-27T03:04:36.955Z,-0.42
2022-11-27T03:06:48.387Z,-0.43
2022-11-27T03:08:56.613Z,-0.43
2022-11-27T03:11:06.098Z,-0.41
2022-11-27T03:13:08.004Z,-0.43
2022-11-27T03:15:10.395Z,-0.43
2022-11-27T03:17:30.915Z,-0.41
2022-11-27T03:19:54.259Z,-0.40
2022-11-27T03:21:58.535Z,-0.40
2022-11-27T03:24:00.837Z,-0.38
2022-11-27T03:26:02.719Z,-0.41
2022-11-27T03:28:10.670Z,-0.41
2022-11-27T03:30:13.139Z,-0.42
2022-11-27T03:32:15.287Z,-0.43
2022-11-27T03:34:18.281Z,-0.42
2022-11-27T03:36:22.101Z,-0.46
2022-11-27T03:38:23.990Z,-0.46
2022-11-27T03:40:34.030Z,-0.48
2022-11-27T03:42:56.694Z,-0.45
2022-11-27T03:45:04.582Z,-0.43
2022-11-27T03:47:28.081Z,-0.43
2022-11-27T03:49:39.892Z,-0.44
2022-11-27T03:52:08.046Z,-0.43
2022-11-27T03:54:35.800Z,-0.44
2022-11-27T03:56:49.030Z,-0.40
2022-11-27T03:58:59.204Z,-0.42
2022-11-27T04:01:03.628Z,-0.44
2022-11-27T04:03:05.635Z,-0.44
2022-11-27T04:05:07.952Z,-0.44
2022-11-27T04:07:17.274Z,-0.42
2022-11-27T04:09:19.198Z,-0.41
2022-11-27T04:11:21.032Z,-0.39
2022-11-27T04:13:22.940Z,-0.41
2022-11-27T04:15:24.823Z,-0.39
2022-11-27T04:17:27.325Z,-0.39
2022-11-27T04:19:29.197Z,-0.38
2022-11-27T04:21:31.050Z,-0.36
2022-11-27T04:23:32.911Z,-0.33
2022-11-27T04:25:34.699Z,-0.30
2022-11-27T04:27:36.504Z,-0.30
2022-11-27T04:29:38.327Z,-0.35
2022-11-27T04:31:40.299Z,-0.33
2022-11-27T04:33:42.226Z,-0.34
2022-11-27T04:35:44.122Z,-0.34
2022-11-27T04:37:46.029Z,-0.33
2022-11-27T04:39:47.876Z,-0.33
2022-11-27T04:41:49.674Z,-0.28
2022-11-27T04:43:51.510Z,-0.28
2022-11-27T04:45:53.433Z,-0.29
2022-11-27T04:47:55.209Z,-0.29
2022-11-27T04:49:57.023Z,-0.25
2022-11-27T04:51:58.974Z,-0.25
2022-11-27T04:54:00.875Z,-0.24
2022-11-27T04:56:02.795Z,-0.23
2022-11-27T04:58:04.589Z,-0.20
2022-11-27T05:00:07.045Z,-0.20
2022-11-27T05:02:09.920Z,-0.19
2022-11-27T05:04:11.834Z,-0.21
2022-11-27T05:06:13.955Z,-0.18
2022-11-27T05:08:15.725Z,-0.17
2022-11-27T05:10:18.651Z,-0.16
2022-11-27T05:12:20.535Z,-0.16
2022-11-27T05:14:27.128Z,-0.15
2022-11-27T05:16:28.978Z,-0.16
2022-11-27T05:18:30.820Z,-0.13
2022-11-27T05:20:32.606Z,-0.12
2022-11-27T05:22:34.496Z,-0.12
2022-11-27T05:24:37.736Z,-0.14
2022-11-27T05:26:40.238Z,-0.13
2022-11-27T05:28:42.026Z,-0.14
2022-11-27T05:30:43.847Z,-0.12
2022-11-27T05:32:45.618Z,-0.12
2022-11-27T05:34:49.812Z,-0.13
2022-11-27T05:36:51.618Z,-0.13
2022-11-27T05:38:53.506Z,-0.11
2022-11-27T05:40:55.355Z,-0.11
2022-11-27T05:42:57.219Z,-0.14
2022-11-27T05:44:59.000Z,-0.11
2022-11-27T05:47:00.834Z,-0.09
2022-11-27T05:49:02.818Z,-0.10
2022-11-27T05:51:05.417Z,-0.11
2022-11-27T05:53:07.254Z,-0.11
2022-11-27T05:55:09.559Z,-0.08
2022-11-27T05:57:11.385Z,-0.09
2022-11-27T05:59:13.241Z,-0.09
2022-11-27T06:01:17.395Z,-0.07
2022-11-27T06:03:19.287Z,-0.08
2022-11-27T06:05:21.136Z,-0.04
2022-11-27T06:07:23.089Z,-0.02
2022-11-27T06:09:25.064Z,-0.01
2022-11-27T06:11:26.878Z,-0.04
2022-11-27T06:13:28.699Z,-0.01
2022-11-27T06:15:30.485Z,0.02
2022-11-27T06:17:32.314Z,0.02
2022-11-27T06:19:34.080Z,0.03
2022-11-27T06:21:35.980Z,0.03
2022-11-27T06:23:38.074Z,0.02
2022-11-27T06:25:39.973Z,0.05
2022-11-27T06:27:42.040Z,0.06
2022-11-27T06:29:43.890Z,0.05
2022-11-27T06:31:45.757Z,0.03
2022-11-27T06:33:49.335Z,0.08
2022-11-27T06:35:51.105Z,0.08
2022-11-27T06:37:52.940Z,0.10
2022-11-27T06:39:54.736Z,0.11
2022-11-27T06:41:56.578Z,0.14
2022-11-27T06:44:00.191Z,0.13
2022-11-27T06:46:03.521Z,0.13
2022-11-27T06:48:05.510Z,0.13
2022-11-27T06:50:07.737Z,0.16
2022-11-27T06:52:09.621Z,0.19
2022-11-27T06:54:11.450Z,0.23
2022-11-27T06:56:16.551Z,0.23
2022-11-27T06:58:18.332Z,0.23
2022-11-27T07:00:20.606Z,0.26
2022-11-27T07:02:22.498Z,0.26
2022-11-27T07:04:24.341Z,0.26
2022-11-27T07:06:27.256Z,0.27
2022-11-27T07:08:29.646Z,0.28
2022-11-27T07:10:36.694Z,0.32
2022-11-27T07:12:38.482Z,0.31
2022-11-27T07:14:40.653Z,0.36
2022-11-27T07:16:42.782Z,0.35
2022-11-27T07:18:47.664Z,0.36
2022-11-27T07:20:56.442Z,0.37
2022-11-27T07:22:58.697Z,0.40
2022-11-27T07:25:00.514Z,0.35
2022-11-27T07:27:02.309Z,0.43
2022-11-27T07:29:04.234Z,0.41
2022-11-27T07:31:06.772Z,0.43
2022-11-27T07:33:08.580Z,0.46
2022-11-27T07:35:11.030Z,0.50
2022-11-27T07:37:12.820Z,0.52
2022-11-27T07:39:14.664Z,0.54
2022-11-27T07:41:17.056Z,0.58
2022-11-27T07:43:18.835Z,0.59
2022-11-27T07:45:21.796Z,0.58
2022-11-27T07:47:23.717Z,0.61
2022-11-27T07:49:25.741Z,0.65
2022-11-27T07:51:27.901Z,0.70
2022-11-27T07:53:29.745Z,0.69
2022-11-27T07:55:31.652Z,0.75
2022-11-27T07:57:33.557Z,0.74
2022-11-27T07:59:35.374Z,0.82
2022-11-27T08:01:37.333Z,0.88
2022-11-27T08:03:40.366Z,0.86
2022-11-27T08:05:42.293Z,0.93
2022-11-27T08:07:57.041Z,0.95
2022-11-27T08:09:58.973Z,0.92
2022-11-27T08:12:00.762Z,0.95
2022-11-27T08:14:05.811Z,0.99
2022-11-27T08:16:08.098Z,1.02
2022-11-27T08:18:10.020Z,1.04
2022-11-27T08:20:12.000Z,1.05
2022-11-27T08:22:15.925Z,1.13
2022-11-27T08:24:17.787Z,1.11
2022-11-27T08:26:21.054Z,1.12
2022-11-27T08:28:22.977Z,1.15
2022-11-27T08:30:24.928Z,1.17
2022-11-27T08:32:26.765Z,1.22
2022-11-27T08:34:28.584Z,1.29
2022-11-27T08:36:30.400Z,1.27
2022-11-27T08:38:33.334Z,1.29
2022-11-27T08:40:36.266Z,1.26
2022-11-27T08:42:38.138Z,1.27
2022-11-27T08:44:40.232Z,1.30
2022-11-27T08:46:43.764Z,1.29
2022-11-27T08:48:46.573Z,1.42
2022-11-27T08:50:50.119Z,1.63
2022-11-27T08:52:51.972Z,1.69
2022-11-27T08:54:57.555Z,1.79
2022-11-27T08:56:59.950Z,1.88
2022-11-27T08:59:01.913Z,1.84
2022-11-27T09:01:33.642Z,1.89
2022-11-27T09:03:35.622Z,1.89
2022-11-27T09:05:43.205Z,1.92
2022-11-27T09:07:45.228Z,1.99
2022-11-27T09:09:47.724Z,2.02
2022-11-27T09:11:49.774Z,2.10
2022-11-27T09:13:51.702Z,2.12
2022-11-27T09:15:53.627Z,2.21
2022-11-27T09:17:55.480Z,2.21
2022-11-27T09:19:57.306Z,2.25
2022-11-27T09:21:59.760Z,2.26
2022-11-27T09:24:02.425Z,2.31
2022-11-27T09:26:09.404Z,2.27
2022-11-27T09:28:11.289Z,2.33
2022-11-27T09:30:14.620Z,2.38
2022-11-27T09:32:17.041Z,2.45
2022-11-27T09:34:18.957Z,2.38
2022-11-27T09:36:23.436Z,2.32
2022-11-27T09:38:25.300Z,2.44
2022-11-27T09:40:27.109Z,2.45
2022-11-27T09:42:48.639Z,2.51
2022-11-27T09:44:59.232Z,2.57
2022-11-27T09:47:20.472Z,2.60
2022-11-27T09:49:35.625Z,2.64
2022-11-27T09:51:44.259Z,2.63
2022-11-27T09:54:16.018Z,2.65
2022-11-27T09:56:19.158Z,2.69
2022-11-27T09:58:47.241Z,2.72
2022-11-27T10:00:49.300Z,2.71
2022-11-27T10:02:51.544Z,2.76
2022-11-27T10:07:25.311Z,2.92
2022-11-27T10:09:48.123Z,2.91
2022-11-27T10:12:01.556Z,2.90
2022-11-27T10:14:27.024Z,2.93
2022-11-27T10:17:07.343Z,3.03
2022-11-27T10:19:24.361Z,3.04
2022-11-27T10:21:47.076Z,2.99
2022-11-27T10:24:10.307Z,3.11
2022-11-27T10:26:28.235Z,3.05
2022-11-27T10:29:12.732Z,3.10
2022-11-27T10:31:27.779Z,3.15
2022-11-27T10:33:44.112Z,3.16
2022-11-27T10:35:49.567Z,3.19
2022-11-27T10:38:03.653Z,3.17
2022-11-27T10:40:14.194Z,3.17
2022-11-27T10:42:22.867Z,3.13
2022-11-27T10:44:30.303Z,3.13
2022-11-27T10:46:37.911Z,3.16
2022-11-27T10:48:40.166Z,3.14
2022-11-27T10:50:43.710Z,3.14
2022-11-27T10:53:32.141Z,3.22
2022-11-27T10:56:04.918Z,3.28
2022-11-27T10:58:24.375Z,3.20
2022-11-27T11:00:27.235Z,3.28
2022-11-27T11:02:33.825Z,3.19
2022-11-27T11:04:48.356Z,3.25
2022-11-27T11:06:58.147Z,3.25
2022-11-27T11:09:34.779Z,3.25
2022-11-27T11:11:36.749Z,3.33
2022-11-27T11:13:41.499Z,3.35
2022-11-27T11:15:52.505Z,3.41
2022-11-27T11:17:54.360Z,3.53
2022-11-27T11:19:56.316Z,3.52
2022-11-27T11:22:00.976Z,3.47
2022-11-27T11:24:31.313Z,3.41
2022-11-27T11:26:45.328Z,3.42
2022-11-27T11:28:52.326Z,3.49
2022-11-27T11:30:58.510Z,3.43
2022-11-27T11:33:02.498Z,3.44
2022-11-27T11:35:27.100Z,3.45
2022-11-27T11:37:32.034Z,3.39
2022-11-27T11:39:48.551Z,3.47
2022-11-27T11:41:50.604Z,3.41
2022-11-27T11:44:01.932Z,3.36
2022-11-27T11:46:24.852Z,3.36
2022-11-27T11:48:28.037Z,3.40
2022-11-27T11:50:39.066Z,3.38
2022-11-27T11:53:02.476Z,3.46
2022-11-27T11:55:20.246Z,3.40
2022-11-27T11:57:52.163Z,3.45
2022-11-27T12:00:05.656Z,3.43
2022-11-27T12:02:31.940Z,3.38
2022-11-27T12:05:04.493Z,3.39
2022-11-27T12:07:09.204Z,3.36
2022-11-27T12:09:32.727Z,3.31
2022-11-27T12:11:53.762Z,3.22
2022-11-27T12:13:58.499Z,3.33
2022-11-27T12:16:16.403Z,3.30
2022-11-27T12:18:23.386Z,3.26
2022-11-27T12:21:03.891Z,3.28
2022-11-27T12:23:33.722Z,3.30
2022-11-27T12:25:48.573Z,3.27
2022-11-27T12:28:12.182Z,3.23
2022-11-27T12:30:23.272Z,3.20
2022-11-27T12:32:48.836Z,3.21
2022-11-27T12:35:26.200Z,3.21
2022-11-27T12:37:49.666Z,3.22
2022-11-27T12:40:25.804Z,3.21
2022-11-27T12:42:40.379Z,3.22
2022-11-27T12:45:11.252Z,3.21
2022-11-27T12:47:33.950Z,3.25
2022-11-27T12:50:03.645Z,3.23
2022-11-27T12:52:19.897Z,3.26
2022-11-27T12:54:38.446Z,3.25
2022-11-27T12:56:52.437Z,3.21
2022-11-27T12:59:05.041Z,3.21
2022-11-27T13:01:41.501Z,3.25
2022-11-27T13:04:00.328Z,3.26
2022-11-27T13:06:33.976Z,3.33
2022-11-27T13:08:55.554Z,3.30
2022-11-27T13:11:04.319Z,3.30
2022-11-27T13:13:16.226Z,3.33
2022-11-27T13:15:35.124Z,3.32
2022-11-27T13:17:42.861Z,3.36
2022-11-27T13:19:49.080Z,3.37
2022-11-27T13:21:53.416Z,3.36
2022-11-27T13:23:55.573Z,3.43
2022-11-27T13:26:00.765Z,3.45
2022-11-27T13:28:05.869Z,3.48
2022-11-27T13:30:10.265Z,3.47
2022-11-27T13:32:24.545Z,3.48
2022-11-27T13:34:30.638Z,3.49
2022-11-27T13:36:36.422Z,3.47
2022-11-27T13:38:42.243Z,3.44
2022-11-27T13:40:47.887Z,3.44
2022-11-27T13:42:55.395Z,3.41
2022-11-27T13:45:19.847Z,3.43
2022-11-27T13:47:25.137Z,3.40
2022-11-27T13:49:36.419Z,3.41
2022-11-27T13:51:40.018Z,3.39
2022-11-27T13:53:42.962Z,3.39
2022-11-27T13:55:56.943Z,3.38
2022-11-27T13:58:01.290Z,3.35
2022-11-27T14:00:03.235Z,3.35
2022-11-27T14:02:08.370Z,3.27
2022-11-27T14:04:10.840Z,3.24
2022-11-27T14:06:26.427Z,3.22
2022-11-27T14:08:35.330Z,3.16
2022-11-27T14:10:50.485Z,3.15
2022-11-27T14:12:59.885Z,3.14
2022-11-27T14:15:21.001Z,3.09
2022-11-27T14:17:43.641Z,3.04
2022-11-27T14:19:47.020Z,3.02
2022-11-27T14:21:49.497Z,2.98
2022-11-27T14:23:54.963Z,2.97
2022-11-27T14:26:14.632Z,2.96
2022-11-27T14:28:26.298Z,2.96
2022-11-27T14:30:50.907Z,2.91
2022-11-27T14:32:52.976Z,2.86
2022-11-27T14:34:54.878Z,2.86
2022-11-27T14:36:59.472Z,2.83
2022-11-27T14:39:02.932Z,2.78
2022-11-27T14:41:11.502Z,2.75
2022-11-27T14:43:20.323Z,2.69
2022-11-27T14:45:22.943Z,2.69
2022-11-27T14:47:25.950Z,2.69
2022-11-27T14:49:30.455Z,2.69
2022-11-27T14:51:37.605Z,2.69
2022-11-27T14:53:41.948Z,2.70
2022-11-27T14:55:44.671Z,2.69
2022-11-27T14:57:48.849Z,2.70
2022-11-27T15:00:21.766Z,2.69
2022-11-27T15:02:29.359Z,2.69
2022-11-27T15:04:40.762Z,2.65
2022-11-27T15:06:47.114Z,2.66
2022-11-27T15:09:03.230Z,2.61
2022-11-27T15:11:35.752Z,2.66
2022-11-27T15:13:38.823Z,2.64
2022-11-27T15:15:44.844Z,2.61
2022-11-27T15:17:50.762Z,2.62
2022-11-27T15:19:53.871Z,2.61
2022-11-27T15:21:57.329Z,2.62
2022-11-27T15:23:59.857Z,2.61
2022-11-27T15:26:16.832Z,2.60
2022-11-27T15:28:30.372Z,2.63
2022-11-27T15:30:32.489Z,2.61
2022-11-27T15:32:52.109Z,2.62
2022-11-27T15:34:55.121Z,2.62
2022-11-27T15:37:06.469Z,2.63
2022-11-27T15:39:19.983Z,2.64
2022-11-27T15:41:26.610Z,2.63
2022-11-27T15:43:28.856Z,2.59
2022-11-27T15:45:32.171Z,2.54
2022-11-27T15:47:43.531Z,2.53
2022-11-27T15:49:46.967Z,2.53
2022-11-27T15:51:50.755Z,2.53
2022-11-27T15:53:53.017Z,2.52
2022-11-27T15:55:55.160Z,2.52
2022-11-27T15:57:58.018Z,2.49
2022-11-27T16:00:00.033Z,2.49
2022-11-27T16:02:03.486Z,2.45
2022-11-27T16:04:06.060Z,2.42
2022-11-27T16:06:09.443Z,2.37
2022-11-27T16:08:11.399Z,2.37
2022-11-27T16:10:13.649Z,2.36
2022-11-27T16:12:15.967Z,2.37
2022-11-27T16:14:18.451Z,2.35
2022-11-27T16:16:23.956Z,2.35
2022-11-27T16:18:27.304Z,2.35
2022-11-27T16:20:29.348Z,2.29
2022-11-27T16:22:31.326Z,2.25
2022-11-27T16:24:42.053Z,2.23
2022-11-27T16:26:50.651Z,2.23
2022-11-27T16:31:26.948Z,2.18
2022-11-27T16:35:49.621Z,2.14
2022-11-27T16:37:54.708Z,2.14
2022-11-27T16:39:57.684Z,2.11
2022-11-27T16:42:00.745Z,2.11
2022-11-27T16:44:13.055Z,2.11
2022-11-27T16:46:28.711Z,2.09
2022-11-27T16:48:38.066Z,2.10
2022-11-27T16:50:40.039Z,2.07
2022-11-27T16:52:59.847Z,2.05
2022-11-27T16:55:13.677Z,2.02
2022-11-27T16:57:15.681Z,2.03
2022-11-27T16:59:26.818Z,2.04
2022-11-27T17:01:38.762Z,2.04
2022-11-27T17:04:16.307Z,2.03
2022-11-27T17:06:29.001Z,2.01
2022-11-27T17:08:37.938Z,2.00
2022-11-27T17:10:40.098Z,2.01
2022-11-27T17:12:42.397Z,2.00
2022-11-27T17:14:44.737Z,2.00
2022-11-27T17:16:50.985Z,2.00
2022-11-27T17:18:53.439Z,2.00
2022-11-27T17:21:03.126Z,1.98
2022-11-27T17:23:05.379Z,1.97
2022-11-27T17:25:11.871Z,1.96
2022-11-27T17:27:15.396Z,1.96
2022-11-27T17:29:22.183Z,1.95
2022-11-27T17:31:27.584Z,1.93
2022-11-27T17:33:30.174Z,1.93
2022-11-27T17:35:32.781Z,1.97
2022-11-27T17:37:35.036Z,1.96
2022-11-27T17:39:37.144Z,1.95
2022-11-27T17:41:41.069Z,1.96
2022-11-27T17:43:43.086Z,1.94
2022-11-27T17:45:45.354Z,1.93
2022-11-27T17:47:47.864Z,1.92
2022-11-27T17:49:50.288Z,1.89
2022-11-27T17:51:52.517Z,1.87
2022-11-27T17:53:54.738Z,1.88
2022-11-27T17:55:57.960Z,1.87
2022-11-27T17:58:00.373Z,1.86
2022-11-27T18:00:02.622Z,1.84
2022-11-27T18:02:05.016Z,1.87
2022-11-27T18:04:07.499Z,1.90
2022-11-27T18:06:10.624Z,1.91
2022-11-27T18:08:13.101Z,1.89
2022-11-27T18:10:18.904Z,1.88
2022-11-27T18:12:21.597Z,1.88
2022-11-27T18:14:24.090Z,1.90
2022-11-27T18:16:32.038Z,1.90
2022-11-27T18:18:34.497Z,1.87
2022-11-27T18:20:36.950Z,1.88
2022-11-27T18:22:39.240Z,1.86
2022-11-27T18:24:42.379Z,1.87
2022-11-27T18:29:12.352Z,1.89
2022-11-27T18:31:22.433Z,1.87
2022-11-27T18:33:26.373Z,1.86
2022-11-27T18:35:29.707Z,1.87
2022-11-27T18:37:31.766Z,1.87
2022-11-27T18:39:36.446Z,1.89
2022-11-27T18:41:39.232Z,1.88
2022-11-27T18:43:44.733Z,1.88
2022-11-27T18:45:47.337Z,1.86
2022-11-27T18:47:49.778Z,1.87
2022-11-27T18:49:52.807Z,1.86
2022-11-27T18:51:54.852Z,1.86
2022-11-27T18:53:57.873Z,1.88
2022-11-27T18:56:05.529Z,1.87
2022-11-27T18:58:07.913Z,1.88
2022-11-27T19:00:11.948Z,1.89
2022-11-27T19:02:14.037Z,1.88
2022-11-27T19:04:15.935Z,1.89
2022-11-27T19:06:21.210Z,1.90
2022-11-27T19:08:24.589Z,1.87
2022-11-27T19:10:26.590Z,1.90
2022-11-27T19:12:29.139Z,1.92
2022-11-27T19:14:31.671Z,1.90
2022-11-27T19:16:38.620Z,1.95
2022-11-27T19:18:41.802Z,1.94
2022-11-27T19:20:43.931Z,1.93
2022-11-27T19:22:46.402Z,1.93
2022-11-27T19:24:48.826Z,1.91
2022-11-27T19:26:51.274Z,1.93
2022-11-27T19:28:57.119Z,1.94
2022-11-27T19:31:07.964Z,1.93
2022-11-27T19:33:10.898Z,1.92
2022-11-27T19:35:13.462Z,1.94
2022-11-27T19:37:24.682Z,1.90
2022-11-27T19:39:35.317Z,1.89
2022-11-27T19:41:37.772Z,1.89
2022-11-27T19:43:40.216Z,1.95
2022-11-27T19:45:42.561Z,1.96
2022-11-27T19:47:44.676Z,1.94
2022-11-27T19:49:46.924Z,1.96
2022-11-27T19:51:49.917Z,1.98
2022-11-27T19:53:55.228Z,1.95
2022-11-27T19:55:57.664Z,1.93
2022-11-27T19:58:00.101Z,1.92
2022-11-27T20:00:02.488Z,1.91
2022-11-27T20:02:04.957Z,1.91
2022-11-27T20:04:08.420Z,1.92
2022-11-27T20:06:14.939Z,1.92
2022-11-27T20:08:18.736Z,1.90
2022-11-27T20:10:23.241Z,1.85
2022-11-27T20:12:25.208Z,1.86
2022-11-27T20:14:27.550Z,1.87
2022-11-27T20:16:30.263Z,1.87
2022-11-27T20:18:32.739Z,1.88
2022-11-27T20:20:35.152Z,1.89
2022-11-27T20:22:37.815Z,1.89
2022-11-27T20:24:58.426Z,1.86
2022-11-27T20:27:05.565Z,1.88
2022-11-27T20:29:08.433Z,1.87
2022-11-27T20:31:26.709Z,1.87
2022-11-27T20:33:29.962Z,1.80
2022-11-27T20:35:33.551Z,1.73
2022-11-27T20:37:35.960Z,1.70
2022-11-27T20:39:41.183Z,1.67
2022-11-27T20:41:47.047Z,1.68
2022-11-27T20:43:54.043Z,1.67
2022-11-27T20:45:58.920Z,1.67
2022-11-27T20:48:01.477Z,1.67
2022-11-27T20:50:05.308Z,1.69
2022-11-27T20:52:07.762Z,1.69
2022-11-27T20:54:11.324Z,1.65
2022-11-27T20:56:16.046Z,1.64
2022-11-27T20:58:17.968Z,1.69
2022-11-27T21:00:20.712Z,1.73
2022-11-27T21:02:25.835Z,1.72
2022-11-27T21:04:28.951Z,1.71
2022-11-27T21:06:33.153Z,1.71
2022-11-27T21:08:35.659Z,1.70
2022-11-27T21:10:37.675Z,1.68
2022-11-27T21:12:40.109Z,1.70
2022-11-27T21:14:44.558Z,1.70
2022-11-27T21:16:49.066Z,1.65
2022-11-27T21:19:00.166Z,1.56
2022-11-27T21:21:10.918Z,1.56
2022-11-27T21:23:14.892Z,1.54
2022-11-27T21:25:20.444Z,1.56
2022-11-27T21:27:26.055Z,1.56
2022-11-27T21:29:27.949Z,1.55
2022-11-27T21:31:34.579Z,1.48
2022-11-27T21:33:39.277Z,1.51
2022-11-27T21:35:42.244Z,1.53
2022-11-27T21:37:44.278Z,1.53
2022-11-27T21:39:47.197Z,1.58
2022-11-27T21:41:51.628Z,1.55
2022-11-27T21:43:59.951Z,1.58
2022-11-27T21:46:14.834Z,1.56
2022-11-27T21:48:16.920Z,1.55
2022-11-27T21:50:18.914Z,1.56
2022-11-27T21:52:20.907Z,1.51
2022-11-27T21:54:23.120Z,1.54
2022-11-27T21:56:27.732Z,1.56
2022-11-27T21:58:34.344Z,1.53
2022-11-27T22:00:37.040Z,1.53
2022-11-27T22:02:39.224Z,1.53
2022-11-27T22:04:41.556Z,1.50
2022-11-27T22:06:45.515Z,1.51
2022-11-27T22:09:01.678Z,1.51
2022-11-27T22:11:09.685Z,1.46
2022-11-27T22:13:11.666Z,1.46
2022-11-27T22:15:13.524Z,1.45
2022-11-27T22:17:15.580Z,1.47
2022-11-27T22:19:18.133Z,1.45
2022-11-27T22:21:20.589Z,1.44
2022-11-27T22:23:22.520Z,1.42
2022-11-27T22:25:24.527Z,1.40
2022-11-27T22:27:26.581Z,1.38
2022-11-27T22:29:29.584Z,1.37
2022-11-27T22:31:34.136Z,1.36
2022-11-27T22:33:37.224Z,1.35
2022-11-27T22:35:39.269Z,1.34
2022-11-27T22:37:41.179Z,1.36
2022-11-27T22:39:46.017Z,1.36
2022-11-27T22:41:47.863Z,1.33
2022-11-27T22:43:50.071Z,1.30
2022-11-27T22:45:52.127Z,1.32
2022-11-27T22:47:54.497Z,1.30
2022-11-27T22:49:56.618Z,1.31
2022-11-27T22:51:58.636Z,1.31
2022-11-27T22:54:03.762Z,1.29
2022-11-27T22:56:08.314Z,1.31
2022-11-27T22:58:13.444Z,1.29
2022-11-27T23:00:15.736Z,1.28
2022-11-27T23:02:18.429Z,1.27
2022-11-27T23:04:20.417Z,1.26
2022-11-27T23:06:23.932Z,1.26
2022-11-27T23:08:25.876Z,1.29
2022-11-27T23:10:27.715Z,1.29
2022-11-27T23:12:29.562Z,1.30
2022-11-27T23:14:31.408Z,1.27
2022-11-27T23:16:33.788Z,1.30
2022-11-27T23:18:36.231Z,1.30
2022-11-27T23:20:42.711Z,1.29
2022-11-27T23:22:44.566Z,1.26
2022-11-27T23:24:46.357Z,1.27
2022-11-27T23:26:48.399Z,1.28
2022-11-27T23:28:53.863Z,1.29
2022-11-27T23:31:22.399Z,1.28
2022-11-27T23:33:17.569Z,1.26
2022-11-27T23:35:19.407Z,1.24
2022-11-27T23:37:21.260Z,1.23
2022-11-27T23:39:23.279Z,1.22
2022-11-27T23:41:26.177Z,1.21
2022-11-27T23:43:28.747Z,1.19
2022-11-27T23:45:30.642Z,1.21
2022-11-27T23:47:32.712Z,1.19
2022-11-27T23:49:34.537Z,1.20
2022-11-27T23:51:36.595Z,1.19
2022-11-27T23:53:38.728Z,1.19
2022-11-27T23:55:40.528Z,1.19
2022-11-27T23:57:42.418Z,1.18
2022-11-27T23:59:44.402Z,1.16
